createdAt,value
2023-11-12T00:01:28.998Z,11.13
2023-11-12T00:04:58.748Z,9.88
2023-11-12T00:08:25.998Z,10.32
2023-11-12T00:11:52.266Z,9.15
2023-11-12T00:15:17.809Z,9.65
2023-11-12T00:18:44.095Z,9.48
2023-11-12T00:22:13.667Z,9.77
2023-11-12T00:25:39.759Z,9.38
2023-11-12T00:29:05.410Z,9.32
2023-11-12T00:32:31.536Z,9.45
2023-11-12T00:35:57.505Z,11.07
2023-11-12T00:39:27.726Z,11.23
2023-11-12T00:42:53.657Z,9.45
2023-11-12T00:46:19.771Z,9.30
2023-11-12T00:49:45.538Z,10.27
2023-11-12T00:53:11.312Z,10.10
2023-11-12T00:56:39.513Z,9.63
2023-11-12T01:00:06.849Z,9.63
2023-11-12T01:03:35.503Z,10.18
2023-11-12T01:07:02.223Z,10.10
2023-11-12T01:10:27.988Z,10.13
2023-11-12T01:13:57.074Z,9.90
2023-11-12T01:17:22.555Z,9.82
2023-11-12T01:20:48.860Z,9.52
2023-11-12T01:24:14.752Z,10.27
2023-11-12T01:27:40.881Z,9.98
2023-11-12T01:31:09.481Z,11.10
2023-11-12T01:34:35.510Z,10.82
2023-11-12T01:38:01.206Z,9.35
2023-11-12T01:41:27.351Z,9.52
2023-11-12T01:44:52.985Z,9.73
2023-11-12T01:48:22.261Z,9.18
2023-11-12T01:51:48.008Z,10.77
2023-11-12T01:55:14.856Z,10.80
2023-11-12T01:58:40.577Z,10.70
2023-11-12T02:02:07.183Z,10.48
2023-11-12T02:05:35.460Z,9.88
2023-11-12T02:09:01.640Z,9.93
2023-11-12T02:12:27.419Z,11.07
2023-11-12T02:15:54.295Z,10.32
2023-11-12T02:19:28.727Z,10.60
2023-11-12T02:22:57.592Z,9.77
2023-11-12T02:26:26.252Z,9.95
2023-11-12T02:29:53.068Z,10.50
2023-11-12T02:33:19.088Z,10.80
2023-11-12T02:36:45.745Z,10.02
2023-11-12T02:40:13.660Z,10.38
2023-11-12T02:43:42.898Z,10.48
2023-11-12T02:47:08.604Z,11.38
2023-11-12T02:50:36.890Z,10.50
2023-11-12T02:54:02.240Z,10.63
2023-11-12T02:57:28.597Z,10.15
2023-11-12T03:00:57.776Z,10.85
2023-11-12T03:04:24.352Z,10.75
2023-11-12T03:07:50.030Z,10.93
2023-11-12T03:11:15.857Z,11.55
2023-11-12T03:14:41.516Z,11.38
2023-11-12T03:18:12.247Z,11.07
2023-11-12T03:21:38.000Z,11.65
2023-11-12T03:25:05.896Z,12.65
2023-11-12T03:28:31.563Z,12.57
2023-11-12T03:31:58.254Z,11.43
2023-11-12T03:35:30.536Z,12.93
2023-11-12T03:38:57.763Z,12.55
2023-11-12T03:42:23.432Z,12.43
2023-11-12T03:45:49.712Z,11.85
2023-11-12T03:49:16.525Z,12.95
2023-11-12T03:52:45.252Z,12.70
2023-11-12T03:56:11.410Z,12.60
2023-11-12T03:59:39.918Z,12.40
2023-11-12T04:03:06.769Z,13.70
2023-11-12T04:06:33.239Z,13.25
2023-11-12T04:10:01.688Z,13.98
2023-11-12T04:13:27.864Z,12.23
2023-11-12T04:16:53.487Z,12.30
2023-11-12T04:20:19.845Z,12.82
2023-11-12T04:23:47.890Z,12.10
2023-11-12T04:27:17.201Z,12.13
2023-11-12T04:30:42.982Z,12.60
2023-11-12T04:34:09.309Z,13.40
2023-11-12T04:37:34.946Z,12.95
2023-11-12T04:41:00.991Z,12.93
2023-11-12T04:44:30.027Z,13.05
2023-11-12T04:47:56.105Z,13.82
2023-11-12T04:51:22.027Z,13.00
2023-11-12T04:54:52.069Z,13.25
2023-11-12T04:58:17.476Z,13.25
2023-11-12T05:01:46.344Z,11.95
2023-11-12T05:05:12.435Z,12.90
2023-11-12T05:08:39.541Z,12.38
2023-11-12T05:12:05.690Z,12.20
2023-11-12T05:15:31.776Z,12.00
2023-11-12T05:19:01.156Z,13.35
2023-11-12T05:22:27.304Z,12.10
2023-11-12T05:25:54.292Z,12.73
2023-11-12T05:29:20.076Z,12.48
2023-11-12T05:32:45.992Z,12.95
2023-11-12T05:36:18.067Z,12.60
2023-11-12T05:39:45.020Z,11.30
2023-11-12T05:43:12.128Z,12.70
2023-11-12T05:46:39.452Z,11.55
2023-11-12T05:50:07.615Z,11.20
2023-11-12T05:53:36.078Z,12.02
2023-11-12T05:57:02.093Z,13.00
2023-11-12T06:00:27.782Z,11.65
2023-11-12T06:03:54.010Z,11.95
2023-11-12T06:07:19.515Z,12.38
2023-11-12T06:10:50.259Z,13.50
2023-11-12T06:14:15.697Z,12.77
2023-11-12T06:17:42.384Z,12.52
2023-11-12T06:21:08.185Z,12.32
2023-11-12T06:24:34.610Z,12.25
2023-11-12T06:28:03.587Z,12.15
2023-11-12T06:31:29.640Z,12.65
2023-11-12T06:34:56.791Z,11.82
2023-11-12T06:38:23.108Z,12.60
2023-11-12T06:41:49.018Z,13.57
2023-11-12T06:45:17.731Z,10.70
2023-11-12T06:48:44.419Z,12.30
2023-11-12T06:52:10.147Z,11.55
2023-11-12T06:55:36.379Z,11.77
2023-11-12T06:59:02.137Z,11.98
2023-11-12T07:02:31.116Z,14.18
2023-11-12T07:05:56.757Z,13.52
2023-11-12T07:09:23.077Z,12.45
2023-11-12T07:12:49.807Z,11.93
2023-11-12T07:16:19.605Z,13.07
2023-11-12T07:19:48.186Z,12.80
2023-11-12T07:23:14.394Z,11.52
2023-11-12T07:26:40.182Z,12.07
2023-11-12T07:30:06.374Z,11.00
2023-11-12T07:33:32.268Z,12.45
2023-11-12T07:37:00.834Z,12.75
2023-11-12T07:40:27.784Z,12.52
2023-11-12T07:43:53.902Z,13.07
2023-11-12T07:47:19.405Z,12.00
2023-11-12T07:50:45.524Z,11.73
2023-11-12T07:54:14.013Z,11.95
2023-11-12T07:57:40.731Z,10.60
2023-11-12T08:01:06.524Z,11.90
2023-11-12T08:04:33.073Z,10.88
2023-11-12T08:07:58.809Z,11.35
2023-11-12T08:11:29.585Z,10.43
2023-11-12T08:14:55.346Z,9.68
2023-11-12T08:18:23.433Z,9.57
2023-11-12T08:21:54.584Z,9.23
2023-11-12T08:25:20.996Z,9.80
2023-11-12T08:28:52.971Z,9.38
2023-11-12T08:32:19.181Z,10.40
2023-11-12T08:35:44.870Z,9.43
2023-11-12T08:39:14.002Z,9.50
2023-11-12T08:42:39.826Z,8.75
2023-11-12T08:46:09.196Z,7.57
2023-11-12T08:49:37.144Z,8.48
2023-11-12T08:53:06.647Z,8.30
2023-11-12T08:56:32.868Z,9.15
2023-11-12T08:59:59.788Z,8.05
2023-11-12T09:03:29.669Z,7.72
2023-11-12T09:07:05.392Z,7.53
2023-11-12T09:10:31.309Z,7.82
2023-11-12T09:13:57.093Z,8.63
2023-11-12T09:17:23.306Z,8.50
2023-11-12T09:20:52.463Z,7.55
2023-11-12T09:24:18.326Z,7.47
2023-11-12T09:27:45.938Z,7.57
2023-11-12T09:31:12.581Z,6.60
2023-11-12T09:34:39.774Z,6.75
2023-11-12T09:38:08.730Z,6.70
2023-11-12T09:41:39.302Z,6.55
2023-11-12T09:45:06.810Z,5.97
2023-11-12T09:48:37.318Z,6.32
2023-11-12T09:52:04.419Z,5.57
2023-11-12T09:55:36.568Z,4.93
2023-11-12T09:59:02.545Z,4.85
2023-11-12T10:02:30.762Z,3.90
2023-11-12T10:05:56.776Z,4.38
2023-11-12T10:09:29.604Z,4.50
2023-11-12T10:12:58.688Z,4.93
2023-11-12T10:16:25.419Z,5.05
2023-11-12T10:19:59.194Z,3.95
2023-11-12T10:23:33.016Z,4.35
2023-11-12T10:27:00.291Z,3.92
2023-11-12T10:30:30.984Z,4.40
2023-11-12T10:34:02.864Z,4.20
2023-11-12T10:37:31.965Z,4.70
2023-11-12T10:41:05.651Z,5.10
2023-11-12T10:44:31.766Z,4.90
2023-11-12T10:48:00.809Z,4.07
2023-11-12T10:51:28.137Z,4.75
2023-11-12T10:54:54.661Z,4.82
2023-11-12T10:58:22.504Z,4.28
2023-11-12T11:01:48.258Z,5.25
2023-11-12T11:05:17.884Z,5.20
2023-11-12T11:08:43.624Z,5.05
2023-11-12T11:12:09.969Z,4.57
2023-11-12T11:15:45.710Z,4.22
2023-11-12T11:19:11.794Z,4.50
2023-11-12T11:22:40.343Z,4.15
2023-11-12T11:26:20.981Z,4.38
2023-11-12T11:30:04.006Z,4.70
2023-11-12T11:33:30.081Z,4.28
2023-11-12T11:37:03.471Z,4.95
2023-11-12T11:40:41.506Z,3.97
2023-11-12T11:44:35.174Z,4.78
2023-11-12T11:48:10.373Z,4.28
2023-11-12T11:51:50.937Z,4.25
2023-11-12T11:55:22.367Z,3.78
2023-11-12T11:58:51.073Z,3.43
2023-11-12T12:02:19.783Z,3.78
2023-11-12T12:05:48.292Z,3.38
2023-11-12T12:09:18.794Z,3.67
2023-11-12T12:12:44.792Z,3.20
2023-11-12T12:16:10.702Z,3.22
2023-11-12T12:19:37.163Z,3.00
2023-11-12T12:23:07.461Z,3.40
2023-11-12T12:26:33.406Z,3.55
2023-11-12T12:30:00.573Z,3.53
2023-11-12T12:33:27.282Z,3.47
2023-11-12T12:37:01.528Z,3.88
2023-11-12T12:40:32.865Z,3.50
2023-11-12T12:44:03.313Z,3.27
2023-11-12T12:47:32.700Z,3.55
2023-11-12T12:51:04.556Z,3.03
2023-11-12T12:54:32.164Z,3.13
2023-11-12T12:58:04.208Z,4.03
2023-11-12T13:01:32.394Z,3.50
2023-11-12T13:05:01.588Z,3.75
2023-11-12T13:08:27.445Z,3.40
2023-11-12T13:11:53.974Z,3.15
2023-11-12T13:15:23.436Z,3.25
2023-11-12T13:18:50.083Z,3.70
2023-11-12T13:22:15.958Z,3.88
2023-11-12T13:25:43.588Z,3.55
2023-11-12T13:29:11.132Z,2.97
2023-11-12T13:32:41.692Z,3.40
2023-11-12T13:36:08.532Z,2.75
2023-11-12T13:39:38.278Z,3.35
2023-11-12T13:43:04.601Z,3.08
2023-11-12T13:46:31.212Z,2.90
2023-11-12T13:49:59.796Z,2.83
2023-11-12T13:53:26.124Z,2.60
2023-11-12T13:56:52.265Z,2.90
2023-11-12T14:00:19.300Z,3.00
2023-11-12T14:03:45.276Z,2.70
2023-11-12T14:07:15.330Z,3.72
2023-11-12T14:10:41.093Z,3.58
2023-11-12T14:14:07.596Z,4.05
2023-11-12T14:17:36.612Z,3.50
2023-11-12T14:21:03.614Z,3.58
2023-11-12T14:24:32.920Z,3.75
2023-11-12T14:27:59.229Z,3.55
2023-11-12T14:31:24.968Z,3.50
2023-11-12T14:34:51.164Z,4.07
2023-11-12T14:38:22.483Z,4.00
2023-11-12T14:41:53.583Z,3.85
2023-11-12T14:45:30.200Z,3.97
2023-11-12T14:48:59.897Z,3.85
2023-11-12T14:52:25.774Z,4.03
2023-11-12T14:55:55.225Z,4.25
2023-11-12T14:59:23.684Z,4.43
2023-11-12T15:02:53.861Z,4.78
2023-11-12T15:06:20.195Z,4.22
2023-11-12T15:09:46.322Z,4.10
2023-11-12T15:13:12.470Z,4.75
2023-11-12T15:16:42.655Z,4.95
2023-11-12T15:20:10.876Z,5.35
2023-11-12T15:23:37.106Z,5.35
2023-11-12T15:27:03.140Z,5.88
2023-11-12T15:30:29.453Z,5.93
2023-11-12T15:33:58.578Z,6.15
2023-11-12T15:37:27.266Z,6.05
2023-11-12T15:40:53.309Z,6.72
2023-11-12T15:44:20.085Z,5.85
2023-11-12T15:47:49.461Z,6.32
2023-11-12T15:51:21.025Z,6.72
2023-11-12T15:55:02.243Z,6.28
2023-11-12T15:58:30.226Z,6.30
2023-11-12T16:01:56.296Z,6.43
2023-11-12T16:05:25.846Z,6.90
2023-11-12T16:08:56.830Z,6.35
2023-11-12T16:12:26.916Z,6.47
2023-11-12T16:15:54.645Z,5.75
2023-11-12T16:19:20.940Z,6.40
2023-11-12T16:22:46.468Z,6.28
2023-11-12T16:26:17.174Z,6.45
2023-11-12T16:29:42.714Z,6.07
2023-11-12T16:33:08.711Z,6.07
2023-11-12T16:36:40.402Z,6.20
2023-11-12T16:40:07.166Z,6.38
2023-11-12T16:43:35.214Z,5.93
2023-11-12T16:47:03.122Z,5.75
2023-11-12T16:50:29.737Z,5.50
2023-11-12T16:53:56.153Z,5.63
2023-11-12T16:57:21.589Z,6.05
2023-11-12T17:00:50.509Z,5.18
2023-11-12T17:04:16.157Z,5.10
2023-11-12T17:07:44.347Z,5.15
2023-11-12T17:11:09.892Z,4.68
2023-11-12T17:14:37.088Z,5.05
2023-11-12T17:18:05.449Z,5.43
2023-11-12T17:21:34.088Z,4.90
2023-11-12T17:25:02.540Z,4.95
2023-11-12T17:28:30.709Z,5.22
2023-11-12T17:31:56.067Z,5.30
2023-11-12T17:35:25.288Z,4.88
2023-11-12T17:38:50.897Z,5.90
2023-11-12T17:42:16.653Z,5.53
2023-11-12T17:45:42.169Z,6.32
2023-11-12T17:49:08.436Z,6.10
2023-11-12T17:52:37.100Z,6.47
2023-11-12T17:56:03.086Z,6.88
2023-11-12T17:59:29.036Z,6.57
2023-11-12T18:02:54.914Z,7.50
2023-11-12T18:06:20.557Z,8.32
2023-11-12T18:09:51.796Z,6.93
2023-11-12T18:13:19.331Z,8.13
2023-11-12T18:16:46.232Z,8.88
2023-11-12T18:20:12.108Z,8.95
2023-11-12T18:23:39.842Z,9.00
2023-11-12T18:27:08.277Z,8.82
2023-11-12T18:30:34.266Z,9.10
2023-11-12T18:33:59.753Z,8.48
2023-11-12T18:37:26.134Z,9.45
2023-11-12T18:40:52.220Z,8.38
2023-11-12T18:44:21.080Z,8.15
2023-11-12T18:47:48.197Z,7.68
2023-11-12T18:51:14.491Z,8.90
2023-11-12T18:54:39.867Z,6.88
2023-11-12T18:58:05.678Z,7.43
2023-11-12T19:01:36.273Z,8.15
2023-11-12T19:05:04.013Z,7.88
2023-11-12T19:08:30.278Z,8.10
2023-11-12T19:11:56.629Z,8.05
2023-11-12T19:15:22.137Z,7.32
2023-11-12T19:18:51.016Z,7.13
2023-11-12T19:22:17.533Z,7.38
2023-11-12T19:25:44.521Z,7.65
2023-11-12T19:29:09.948Z,7.97
2023-11-12T19:32:35.880Z,6.85
2023-11-12T19:36:04.860Z,7.75
2023-11-12T19:39:31.854Z,7.82
2023-11-12T19:42:58.031Z,8.63
2023-11-12T19:46:23.903Z,7.72
2023-11-12T19:49:49.548Z,7.82
2023-11-12T19:53:20.387Z,7.70
2023-11-12T19:56:46.141Z,6.18
2023-11-12T20:00:14.039Z,8.30
2023-11-12T20:03:39.851Z,8.95
2023-11-12T20:07:06.115Z,8.80
2023-11-12T20:10:34.226Z,8.70
2023-11-12T20:14:03.728Z,8.85
2023-11-12T20:17:30.131Z,9.43
2023-11-12T20:20:56.055Z,8.20
2023-11-12T20:24:21.498Z,8.82
2023-11-12T20:27:51.934Z,9.68
2023-11-12T20:31:19.230Z,8.45
2023-11-12T20:34:46.085Z,8.48
2023-11-12T20:38:13.123Z,8.75
2023-11-12T20:41:39.891Z,9.07
2023-11-12T20:45:08.784Z,9.27
2023-11-12T20:48:34.621Z,9.02
2023-11-12T20:52:00.659Z,9.20
2023-11-12T20:55:26.780Z,10.50
2023-11-12T20:58:52.224Z,10.00
2023-11-12T21:02:25.474Z,9.38
2023-11-12T21:05:53.328Z,9.73
2023-11-12T21:09:19.165Z,9.68
2023-11-12T21:12:45.686Z,10.20
2023-11-12T21:16:12.812Z,8.90
2023-11-12T21:19:40.893Z,9.57
2023-11-12T21:23:08.144Z,8.95
2023-11-12T21:26:34.394Z,10.02
2023-11-12T21:30:03.087Z,9.80
2023-11-12T21:33:33.148Z,9.35
2023-11-12T21:37:01.662Z,9.50
2023-11-12T21:40:28.311Z,10.02
2023-11-12T21:43:56.916Z,9.45
2023-11-12T21:47:24.513Z,9.93
2023-11-12T21:50:51.768Z,9.60
2023-11-12T21:54:22.094Z,10.15
2023-11-12T21:57:47.996Z,10.00
2023-11-12T22:01:14.099Z,9.95
2023-11-12T22:04:39.819Z,9.32
2023-11-12T22:08:05.770Z,10.73
2023-11-12T22:11:34.868Z,9.95
2023-11-12T22:15:00.753Z,10.20
2023-11-12T22:18:26.205Z,10.15
2023-11-12T22:21:54.285Z,10.43
2023-11-12T22:25:19.852Z,10.68
2023-11-12T22:28:48.298Z,11.07
2023-11-12T22:32:14.024Z,11.23
2023-11-12T22:35:39.871Z,9.93
2023-11-12T22:39:06.340Z,11.85
2023-11-12T22:42:31.999Z,10.80
2023-11-12T22:46:00.970Z,9.50
2023-11-12T22:49:26.370Z,10.40
2023-11-12T22:52:52.097Z,11.13
2023-11-12T22:56:17.463Z,9.55
2023-11-12T22:59:43.236Z,9.93
2023-11-12T23:03:11.709Z,11.30
2023-11-12T23:06:37.504Z,10.48
2023-11-12T23:10:08.527Z,10.30
2023-11-12T23:13:34.386Z,10.50
2023-11-12T23:17:01.431Z,9.98
2023-11-12T23:20:29.915Z,9.40
2023-11-12T23:23:55.688Z,10.60
2023-11-12T23:27:21.435Z,10.00
2023-11-12T23:30:47.226Z,9.75
2023-11-12T23:34:13.099Z,10.93
2023-11-12T23:37:41.210Z,10.90
2023-11-12T23:41:08.037Z,10.65
2023-11-12T23:44:33.774Z,11.27
2023-11-12T23:47:59.529Z,12.23
2023-11-12T23:51:24.941Z,10.43
2023-11-12T23:54:53.298Z,10.85
2023-11-12T23:58:18.711Z,11.10
